Time;durP1;ratioP1;P1;durP2;ratioP2;P2;SDS_P1;SDS_P2;PMS_P1;PMS_P2;Temp;Humidity;BMP_temperature;BMP_pressure;BME280_temperature;BME280_humidity;BME280_pressure;Samples;Min_cycle;Max_cycle;Signal;HPM_P1;HPM_P2
2022/12/01 00:01:31;;;;;;;56.55;28.58;;;6.60;99.90;;;;;;5033321;28;20450;-72
2022/12/01 00:03:57;;;;;;;57.88;26.88;;;6.60;99.90;;;;;;5033112;28;20078;-72
2022/12/01 00:06:22;;;;;;;56.90;28.92;;;6.60;99.90;;;;;;5016585;28;20473;-72
2022/12/01 00:11:36;;;;;;;55.80;28.23;;;6.60;99.90;;;;;;5072146;28;20044;-72
2022/12/01 00:14:02;;;;;;;58.42;28.80;;;6.60;99.90;;;;;;5070476;28;20032;-72
2022/12/01 00:16:28;;;;;;;58.47;28.30;;;6.50;99.90;;;;;;5072880;28;20079;-72
2022/12/01 00:18:53;;;;;;;56.40;28.00;;;6.50;99.90;;;;;;5055992;28;20040;-72
2022/12/01 00:21:21;;;;;;;52.47;26.50;;;6.60;99.90;;;;;;5071436;28;20408;-72
2022/12/01 00:23:50;;;;;;;55.03;27.50;;;6.50;99.90;;;;;;5054471;28;20048;-72
2022/12/01 00:26:17;;;;;;;55.47;27.63;;;6.50;99.90;;;;;;5055891;28;20503;-72
2022/12/01 00:28:42;;;;;;;52.65;26.77;;;6.50;99.90;;;;;;5072408;28;20056;-72
2022/12/01 00:31:09;;;;;;;54.28;27.75;;;6.50;99.90;;;;;;5052841;28;20477;-72
2022/12/01 00:33:35;;;;;;;52.17;26.77;;;6.50;99.90;;;;;;5054287;28;20472;-72
2022/12/01 00:36:02;;;;;;;54.58;26.48;;;6.50;99.90;;;;;;5055948;28;20610;-72
2022/12/01 00:38:27;;;;;;;55.25;28.27;;;6.50;99.90;;;;;;5055656;28;20037;-72
2022/12/01 00:40:53;;;;;;;57.25;27.85;;;6.50;99.90;;;;;;5054591;28;20028;-72
2022/12/01 00:43:18;;;;;;;60.28;29.73;;;6.50;99.90;;;;;;5052946;28;20099;-72
2022/12/01 00:45:44;;;;;;;56.35;28.58;;;6.50;99.90;;;;;;5054488;28;20044;-72
2022/12/01 00:48:10;;;;;;;50.70;26.00;;;6.40;99.90;;;;;;5055623;28;20401;-72
2022/12/01 00:50:35;;;;;;;62.50;28.77;;;6.40;99.90;;;;;;5054339;28;20044;-72
2022/12/01 00:53:01;;;;;;;56.15;27.08;;;6.30;99.90;;;;;;5070522;28;20068;-72
2022/12/01 00:55:26;;;;;;;57.88;29.27;;;6.40;99.90;;;;;;5055658;28;20067;-72
2022/12/01 00:57:52;;;;;;;58.72;29.98;;;6.40;99.90;;;;;;5072056;28;20089;-72
2022/12/01 01:00:18;;;;;;;54.47;29.10;;;6.40;99.90;;;;;;5071181;28;20392;-72
2022/12/01 01:02:43;;;;;;;52.92;27.90;;;6.40;99.90;;;;;;5068171;28;20044;-72
2022/12/01 01:05:09;;;;;;;54.15;28.02;;;6.40;99.90;;;;;;5072000;28;20127;-72
2022/12/01 01:07:35;;;;;;;59.35;30.02;;;6.40;99.90;;;;;;5055274;28;20486;-72
2022/12/01 01:10:00;;;;;;;57.40;28.88;;;6.40;99.90;;;;;;5055163;28;20548;-72
2022/12/01 01:12:26;;;;;;;55.25;29.90;;;6.40;99.90;;;;;;5052523;28;20029;-72
2022/12/01 01:14:52;;;;;;;61.28;29.98;;;6.50;99.90;;;;;;5055212;28;20068;-72
2022/12/01 01:17:18;;;;;;;60.10;29.95;;;6.40;99.90;;;;;;5071953;28;20068;-72
2022/12/01 01:19:44;;;;;;;58.65;29.35;;;6.40;99.90;;;;;;5055202;28;20040;-72
2022/12/01 01:22:10;;;;;;;62.72;31.90;;;6.40;99.90;;;;;;5051804;28;20036;-72
2022/12/01 01:24:36;;;;;;;65.85;31.42;;;6.40;99.90;;;;;;5054854;28;20117;-72
2022/12/01 01:27:02;;;;;;;58.63;31.67;;;6.40;99.90;;;;;;5071713;28;20509;-72
2022/12/01 01:29:28;;;;;;;64.22;33.08;;;6.40;99.90;;;;;;5071801;28;20044;-72
2022/12/01 01:31:53;;;;;;;60.65;31.52;;;6.40;99.90;;;;;;5069687;28;20033;-72
2022/12/01 01:34:19;;;;;;;60.72;31.35;;;6.40;99.90;;;;;;5071685;28;20028;-72
2022/12/01 01:36:44;;;;;;;61.38;30.17;;;6.50;99.90;;;;;;5054969;28;20033;-72
2022/12/01 01:39:10;;;;;;;63.22;32.25;;;6.50;99.90;;;;;;5070976;28;20040;-72
2022/12/01 01:41:36;;;;;;;58.22;29.73;;;6.50;99.90;;;;;;5053461;28;20127;-72
2022/12/01 01:44:02;;;;;;;56.53;31.20;;;6.50;99.90;;;;;;5054836;28;20091;-72
2022/12/01 01:46:31;;;;;;;59.28;31.42;;;6.40;99.90;;;;;;5055167;28;20055;-72
2022/12/01 01:49:03;;;;;;;56.03;31.10;;;6.40;99.90;;;;;;5054954;28;20508;-72
2022/12/01 01:51:41;;;;;;;61.63;32.47;;;6.40;99.90;;;;;;5051808;28;20032;-72
2022/12/01 01:54:34;;;;;;;61.90;32.13;;;6.40;99.90;;;;;;5054768;28;20036;-72
2022/12/01 01:57:01;;;;;;;58.35;31.33;;;6.40;99.90;;;;;;5053797;28;20041;-72
2022/12/01 01:59:32;;;;;;;63.08;32.78;;;6.40;99.90;;;;;;5071434;28;20074;-72
2022/12/01 02:02:05;;;;;;;67.22;33.10;;;6.40;99.90;;;;;;5069316;28;20043;-72
2022/12/01 02:04:33;;;;;;;63.75;32.40;;;6.40;99.90;;;;;;5070089;28;20542;-72
2022/12/01 02:06:59;;;;;;;62.90;32.45;;;6.40;99.90;;;;;;5071465;28;20040;-72
2022/12/01 02:09:25;;;;;;;62.08;31.48;;;6.40;99.90;;;;;;5071348;28;20040;-72
2022/12/01 02:12:12;;;;;;;64.22;32.85;;;6.40;99.90;;;;;;5070138;28;20131;-72
2022/12/01 02:15:03;;;;;;;65.47;31.70;;;6.40;99.90;;;;;;5073317;28;20120;-72
2022/12/01 02:18:12;;;;;;;62.65;32.22;;;6.40;99.90;;;;;;5055490;28;20431;-72
2022/12/01 02:21:22;;;;;;;65.47;32.20;;;6.40;99.90;;;;;;5073476;28;20045;-72
2022/12/01 02:24:07;;;;;;;66.15;32.58;;;6.40;99.90;;;;;;5058456;28;20094;-72
2022/12/01 02:27:07;;;;;;;62.70;31.88;;;6.40;99.90;;;;;;5075055;28;20123;-72
2022/12/01 02:30:04;;;;;;;63.50;31.60;;;6.40;99.90;;;;;;5074545;28;20048;-72
2022/12/01 02:32:39;;;;;;;65.47;33.45;;;6.40;99.90;;;;;;5067867;28;20040;-72
2022/12/01 02:35:23;;;;;;;65.82;33.35;;;6.40;99.90;;;;;;5073620;28;20037;-72
2022/12/01 02:38:01;;;;;;;62.75;31.83;;;6.40;99.90;;;;;;5058142;28;20037;-72
2022/12/01 02:40:39;;;;;;;62.40;32.08;;;6.40;99.90;;;;;;5056490;28;20040;-72
2022/12/01 02:43:04;;;;;;;68.93;33.78;;;6.40;99.90;;;;;;5058121;28;20044;-72
2022/12/01 02:45:38;;;;;;;65.28;34.58;;;6.40;99.90;;;;;;5073375;28;20044;-72
2022/12/01 02:48:09;;;;;;;65.18;31.73;;;6.30;99.90;;;;;;5074548;28;20040;-72
2022/12/01 02:50:38;;;;;;;64.57;33.42;;;6.40;99.90;;;;;;5056255;28;20087;-72
2022/12/01 02:53:06;;;;;;;63.13;32.38;;;6.40;99.90;;;;;;5057645;28;20119;-72
2022/12/01 02:55:32;;;;;;;68.45;33.83;;;6.40;99.90;;;;;;5073186;28;20153;-72
2022/12/01 02:57:57;;;;;;;64.53;31.25;;;6.30;99.90;;;;;;5074221;28;20119;-72
2022/12/01 03:00:23;;;;;;;74.30;35.15;;;6.30;99.90;;;;;;5055990;28;20043;-72
2022/12/01 03:03:13;;;;;;;68.97;34.08;;;6.30;99.90;;;;;;5073850;28;20508;-72
2022/12/01 03:05:57;;;;;;;66.35;33.70;;;6.30;99.90;;;;;;5070336;28;20651;-72
2022/12/01 03:08:31;;;;;;;65.68;33.53;;;6.30;99.90;;;;;;5035663;28;20044;-72
2022/12/01 03:10:58;;;;;;;71.25;35.22;;;6.30;99.90;;;;;;5056046;28;20127;-72
2022/12/01 03:13:53;;;;;;;69.85;34.85;;;6.30;99.90;;;;;;5074162;28;20381;-72
2022/12/01 03:16:46;;;;;;;73.72;35.45;;;6.30;99.90;;;;;;5056176;28;20489;-72
2022/12/01 03:19:36;;;;;;;71.10;35.17;;;6.20;99.90;;;;;;5073888;28;20098;-72
2022/12/01 03:22:11;;;;;;;68.28;32.30;;;6.30;99.90;;;;;;5054218;28;20489;-72
2022/12/01 03:24:40;;;;;;;59.38;30.02;;;6.30;99.90;;;;;;5052659;28;20041;-72
2022/12/01 03:27:08;;;;;;;70.38;34.65;;;6.30;99.90;;;;;;5050771;28;20040;-72
2022/12/01 03:29:44;;;;;;;67.55;34.95;;;6.30;99.90;;;;;;5056903;28;20053;-72
2022/12/01 03:32:25;;;;;;;60.30;31.67;;;6.30;99.90;;;;;;5070212;28;20107;-72
2022/12/01 03:35:00;;;;;;;62.72;30.33;;;6.30;99.90;;;;;;5073775;28;20521;-72
2022/12/01 03:37:36;;;;;;;67.40;32.25;;;6.30;99.90;;;;;;5073587;28;20072;-72
2022/12/01 03:40:06;;;;;;;68.00;32.65;;;6.30;99.90;;;;;;5055694;28;20051;-72
2022/12/01 03:42:36;;;;;;;67.70;32.53;;;6.30;99.90;;;;;;5049381;28;20133;-72
2022/12/01 03:45:10;;;;;;;66.60;32.40;;;6.30;99.90;;;;;;5041554;28;20072;-72
2022/12/01 03:47:38;;;;;;;60.38;31.42;;;6.30;99.90;;;;;;5053160;28;20037;-72
2022/12/01 03:50:06;;;;;;;75.68;34.42;;;6.30;99.90;;;;;;5070564;28;20036;-72
2022/12/01 03:52:57;;;;;;;66.45;32.67;;;6.30;99.90;;;;;;5036550;28;20542;-72
2022/12/01 03:55:31;;;;;;;69.95;33.10;;;6.30;99.90;;;;;;5033130;28;20073;-72
2022/12/01 03:58:18;;;;;;;66.88;32.53;;;6.30;99.90;;;;;;5026871;28;20049;-72
2022/12/01 04:00:48;;;;;;;68.35;32.63;;;6.40;99.90;;;;;;5024995;28;20044;-72
2022/12/01 04:03:19;;;;;;;67.88;33.80;;;6.30;99.90;;;;;;5034780;28;20057;-72
2022/12/01 04:05:44;;;;;;;66.63;33.97;;;6.40;99.90;;;;;;5066147;28;20091;-72
2022/12/01 04:08:10;;;;;;;71.40;34.67;;;6.40;99.90;;;;;;5059808;28;20076;-72
2022/12/01 04:10:36;;;;;;;64.53;32.30;;;6.40;99.90;;;;;;5051553;28;20036;-72
2022/12/01 04:13:01;;;;;;;68.68;34.10;;;6.30;99.90;;;;;;5043432;28;20041;-72
2022/12/01 04:15:27;;;;;;;71.32;33.75;;;6.30;99.90;;;;;;5025158;28;20075;-72
2022/12/01 04:17:53;;;;;;;79.07;35.05;;;6.30;99.90;;;;;;5039944;28;20507;-72
2022/12/01 04:20:18;;;;;;;71.55;34.92;;;6.30;99.90;;;;;;5049831;28;20037;-72
2022/12/01 04:22:44;;;;;;;71.07;34.35;;;6.30;99.90;;;;;;5053533;28;20045;-72
2022/12/01 04:25:10;;;;;;;68.47;34.78;;;6.30;99.90;;;;;;5043980;28;20070;-72
2022/12/01 04:27:36;;;;;;;75.78;35.80;;;6.30;99.90;;;;;;5058917;28;20052;-72
2022/12/01 04:30:04;;;;;;;66.60;33.30;;;6.30;99.90;;;;;;5039170;28;20041;-72
2022/12/01 04:32:29;;;;;;;64.93;33.83;;;6.30;99.90;;;;;;5045026;28;20394;-72
2022/12/01 04:34:55;;;;;;;76.28;38.00;;;6.30;99.90;;;;;;5071207;28;20033;-72
2022/12/01 04:37:20;;;;;;;69.35;34.58;;;6.30;99.90;;;;;;5042679;28;20097;-72
2022/12/01 04:39:46;;;;;;;73.93;33.20;;;6.30;99.90;;;;;;5051295;28;20047;-72
2022/12/01 04:42:12;;;;;;;73.65;34.65;;;6.30;99.90;;;;;;5050693;28;20068;-72
2022/12/01 04:44:37;;;;;;;71.25;35.72;;;6.20;99.90;;;;;;5043482;28;20519;-72
2022/12/01 04:47:04;;;;;;;73.45;34.63;;;6.30;99.90;;;;;;5050974;28;20033;-72
2022/12/01 04:49:30;;;;;;;73.07;35.28;;;6.20;99.90;;;;;;5052081;28;20040;-72
2022/12/01 04:51:55;;;;;;;76.03;35.38;;;6.20;99.90;;;;;;5052671;28;20033;-72
2022/12/01 04:54:21;;;;;;;74.13;36.20;;;6.20;99.90;;;;;;5051520;28;20041;-72
2022/12/01 04:56:47;;;;;;;68.88;33.45;;;6.30;99.90;;;;;;5057466;28;20029;-72
2022/12/01 04:59:13;;;;;;;72.03;34.30;;;6.20;99.90;;;;;;5052261;28;20036;-72
2022/12/01 05:01:39;;;;;;;68.63;34.35;;;6.30;99.90;;;;;;5050993;28;20037;-72
2022/12/01 05:04:05;;;;;;;71.50;35.05;;;6.20;99.90;;;;;;5068351;28;20057;-72
2022/12/01 05:06:30;;;;;;;66.95;34.35;;;6.20;99.90;;;;;;5029385;28;20063;-72
2022/12/01 05:08:59;;;;;;;67.60;34.70;;;6.20;99.90;;;;;;5035265;28;20548;-72
2022/12/01 05:11:27;;;;;;;71.97;34.08;;;6.20;99.90;;;;;;5050568;28;20045;-72
2022/12/01 05:13:52;;;;;;;74.25;33.42;;;6.30;99.90;;;;;;5029920;28;20045;-72
2022/12/01 05:16:21;;;;;;;70.72;33.55;;;6.20;99.90;;;;;;5035589;28;20044;-72
2022/12/01 05:18:49;;;;;;;75.68;35.13;;;6.30;99.90;;;;;;5035833;28;20045;-72
2022/12/01 05:21:15;;;;;;;67.97;33.00;;;6.20;99.90;;;;;;5051072;28;20511;-72
2022/12/01 05:23:40;;;;;;;68.95;33.80;;;6.20;99.90;;;;;;5035033;28;20049;-72
2022/12/01 05:26:08;;;;;;;72.60;34.03;;;6.20;99.90;;;;;;5054229;28;20039;-72
2022/12/01 05:28:34;;;;;;;77.20;35.22;;;6.30;99.90;;;;;;5050498;28;20044;-72
2022/12/01 05:31:00;;;;;;;70.55;34.97;;;6.30;99.90;;;;;;5037764;28;20507;-72
2022/12/01 05:33:26;;;;;;;68.00;34.78;;;6.20;99.90;;;;;;5040543;28;20060;-72
2022/12/01 05:35:53;;;;;;;69.13;32.25;;;6.30;99.90;;;;;;5054949;28;20036;-72
2022/12/01 05:38:19;;;;;;;75.05;35.47;;;6.20;99.90;;;;;;5022125;28;20041;-72
2022/12/01 05:40:52;;;;;;;75.38;34.83;;;6.30;99.90;;;;;;5043259;28;20068;-72
2022/12/01 05:43:20;;;;;;;75.75;36.38;;;6.20;99.90;;;;;;5055221;28;20048;-72
2022/12/01 05:45:45;;;;;;;73.32;34.05;;;6.20;99.90;;;;;;5066899;28;20044;-72
2022/12/01 05:48:11;;;;;;;67.28;32.78;;;6.20;99.90;;;;;;5040762;28;20048;-72
2022/12/01 05:50:38;;;;;;;75.00;35.42;;;6.20;99.90;;;;;;5044651;28;20043;-72
2022/12/01 05:53:04;;;;;;;66.13;32.28;;;6.10;99.90;;;;;;5055829;28;20404;-72
2022/12/01 05:55:33;;;;;;;70.90;35.22;;;6.20;99.90;;;;;;5053953;28;20124;-72
2022/12/01 05:57:58;;;;;;;77.20;36.03;;;6.20;99.90;;;;;;5038568;28;20033;-72
2022/12/01 06:00:24;;;;;;;77.90;35.63;;;6.20;99.90;;;;;;5052907;28;20098;-72
2022/12/01 06:02:50;;;;;;;69.18;34.33;;;6.20;99.90;;;;;;5068160;28;20477;-72
2022/12/01 06:05:15;;;;;;;73.45;34.28;;;6.20;99.90;;;;;;5037420;28;20045;-72
2022/12/01 06:07:41;;;;;;;72.57;34.20;;;6.20;99.90;;;;;;5037620;28;20396;-72
2022/12/01 06:10:08;;;;;;;80.85;36.03;;;6.20;99.90;;;;;;5025378;28;20048;-72
2022/12/01 06:12:35;;;;;;;76.13;36.10;;;6.20;99.90;;;;;;5068401;28;20075;-72
2022/12/01 06:15:01;;;;;;;73.80;34.28;;;6.20;99.90;;;;;;5072145;28;20143;-72
2022/12/01 06:17:26;;;;;;;66.30;32.35;;;6.20;99.90;;;;;;5053451;28;20090;-72
2022/12/01 06:19:52;;;;;;;67.82;32.55;;;6.20;99.90;;;;;;5037812;28;20036;-72
2022/12/01 06:22:17;;;;;;;72.75;35.15;;;6.20;99.90;;;;;;5043045;28;20032;-72
2022/12/01 06:24:43;;;;;;;72.63;35.55;;;6.20;99.90;;;;;;5075131;28;20083;-72
2022/12/01 06:27:08;;;;;;;71.90;35.78;;;6.20;99.90;;;;;;5042582;28;20037;-72
2022/12/01 06:29:34;;;;;;;72.28;33.38;;;6.20;99.90;;;;;;5072205;28;20036;-72
2022/12/01 06:32:00;;;;;;;68.22;32.45;;;6.20;99.90;;;;;;5051195;28;20310;-72
2022/12/01 06:34:25;;;;;;;62.67;31.92;;;6.20;99.90;;;;;;5046070;28;20107;-72
2022/12/01 06:36:51;;;;;;;75.75;34.75;;;6.20;99.90;;;;;;5069272;28;20029;-72
2022/12/01 06:39:16;;;;;;;68.90;32.83;;;6.10;99.90;;;;;;5037276;28;20039;-72
2022/12/01 06:41:42;;;;;;;70.03;34.08;;;6.20;99.90;;;;;;5070202;28;20485;-72
2022/12/01 06:44:09;;;;;;;71.32;32.63;;;6.20;99.90;;;;;;5054259;28;20122;-72
2022/12/01 06:46:35;;;;;;;71.53;32.85;;;6.10;99.90;;;;;;5047120;28;20041;-72
2022/12/01 06:49:00;;;;;;;58.67;29.90;;;6.10;99.90;;;;;;5052709;28;20128;-72
2022/12/01 06:51:27;;;;;;;67.15;31.58;;;6.10;99.90;;;;;;5052584;28;20044;-72
2022/12/01 06:53:56;;;;;;;65.82;31.65;;;6.20;99.90;;;;;;5023951;28;20045;-72
2022/12/01 06:56:22;;;;;;;62.95;30.45;;;6.20;99.90;;;;;;5061823;28;20400;-72
2022/12/01 06:58:49;;;;;;;68.22;33.60;;;6.20;99.90;;;;;;5061751;28;20037;-72
2022/12/01 07:01:15;;;;;;;65.85;32.05;;;6.20;99.90;;;;;;5050559;28;20087;-72
2022/12/01 07:03:41;;;;;;;66.55;33.65;;;6.20;99.90;;;;;;5037155;28;20052;-72
2022/12/01 07:06:07;;;;;;;66.15;32.30;;;6.20;99.90;;;;;;5034047;28;20037;-72
2022/12/01 07:08:33;;;;;;;62.60;30.73;;;6.20;99.90;;;;;;5053116;28;20037;-72
2022/12/01 07:11:00;;;;;;;65.32;32.55;;;6.20;99.90;;;;;;5051748;28;20037;-72
2022/12/01 07:13:26;;;;;;;66.45;32.65;;;6.20;99.90;;;;;;5037364;28;20773;-72
2022/12/01 07:15:52;;;;;;;62.65;32.08;;;6.20;99.90;;;;;;5050360;28;20071;-72
2022/12/01 07:18:18;;;;;;;58.55;29.17;;;6.20;99.90;;;;;;5035015;28;20061;-72
2022/12/01 07:20:43;;;;;;;66.00;32.67;;;6.20;99.90;;;;;;5054140;28;20045;-72
2022/12/01 07:23:09;;;;;;;63.75;32.08;;;6.20;99.90;;;;;;5034630;28;20039;-72
2022/12/01 07:25:34;;;;;;;65.05;30.85;;;6.20;99.90;;;;;;5052660;28;20492;-72
2022/12/01 07:28:00;;;;;;;59.72;29.95;;;6.20;99.90;;;;;;5043024;28;20471;-72
2022/12/01 07:30:25;;;;;;;67.97;32.25;;;6.20;99.90;;;;;;5052457;28;20110;-72
2022/12/01 07:32:51;;;;;;;69.13;32.45;;;6.20;99.90;;;;;;5035430;28;20033;-72
2022/12/01 07:35:17;;;;;;;64.18;30.60;;;6.20;99.90;;;;;;5053571;28;20530;-72
2022/12/01 07:37:42;;;;;;;67.10;31.88;;;6.30;99.90;;;;;;5047611;28;20518;-72
2022/12/01 07:40:09;;;;;;;61.05;31.08;;;6.20;99.90;;;;;;5051872;28;20037;-72
2022/12/01 07:42:35;;;;;;;66.35;32.50;;;6.20;99.90;;;;;;5051850;28;20040;-72
2022/12/01 07:45:00;;;;;;;63.33;31.23;;;6.20;99.90;;;;;;5058200;28;20068;-72
2022/12/01 07:47:26;;;;;;;63.90;31.30;;;6.30;99.90;;;;;;5053268;28;20477;-72
2022/12/01 07:49:51;;;;;;;66.35;33.08;;;6.20;99.90;;;;;;5053211;28;20119;-72
2022/12/01 07:52:17;;;;;;;62.63;31.00;;;6.20;99.90;;;;;;5030810;28;20037;-72
2022/12/01 07:54:42;;;;;;;68.15;32.22;;;6.20;99.90;;;;;;5053139;28;20037;-72
2022/12/01 07:57:08;;;;;;;63.47;30.58;;;6.20;99.90;;;;;;5046361;28;20102;-72
2022/12/01 07:59:34;;;;;;;59.30;30.42;;;6.20;99.90;;;;;;5071173;28;20047;-72
2022/12/01 08:01:59;;;;;;;72.93;32.05;;;6.20;99.90;;;;;;5073042;28;20046;-72
2022/12/01 08:04:25;;;;;;;66.28;31.42;;;6.20;99.90;;;;;;5056285;28;20413;-72
2022/12/01 08:06:50;;;;;;;70.20;33.97;;;6.20;99.90;;;;;;5056098;28;20135;-72
2022/12/01 08:09:16;;;;;;;64.15;30.38;;;6.10;99.90;;;;;;5051138;28;20040;-72
2022/12/01 08:11:41;;;;;;;65.05;31.17;;;6.00;99.90;;;;;;5035025;28;20099;-72
2022/12/01 08:14:07;;;;;;;63.33;29.98;;;5.90;99.90;;;;;;5035113;28;20116;-72
2022/12/01 08:16:32;;;;;;;58.53;29.48;;;5.90;99.90;;;;;;5036088;28;20037;-72
2022/12/01 08:18:58;;;;;;;64.78;31.60;;;6.00;99.90;;;;;;5036421;28;20136;-72
2022/12/01 08:21:23;;;;;;;63.15;32.63;;;6.00;99.90;;;;;;5035782;28;20037;-72
2022/12/01 08:23:56;;;;;;;58.55;28.00;;;5.90;99.90;;;;;;5035898;28;20037;-72
2022/12/01 08:26:23;;;;;;;63.97;31.17;;;5.90;99.90;;;;;;5050731;28;20041;-72
2022/12/01 08:28:49;;;;;;;63.53;29.27;;;5.90;99.90;;;;;;5035609;28;20090;-72
2022/12/01 08:31:19;;;;;;;68.00;33.30;;;5.90;99.90;;;;;;5035989;28;20068;-72
2022/12/01 08:33:46;;;;;;;64.28;30.17;;;5.90;99.90;;;;;;5036196;28;20435;-72
2022/12/01 08:36:12;;;;;;;67.78;31.52;;;5.90;99.90;;;;;;5052444;28;20047;-72
2022/12/01 08:38:37;;;;;;;65.72;33.60;;;5.80;99.90;;;;;;5052550;28;20417;-72
2022/12/01 08:41:07;;;;;;;68.05;31.20;;;5.80;99.90;;;;;;5069021;28;20553;-72
2022/12/01 08:43:38;;;;;;;61.17;30.90;;;5.80;99.90;;;;;;5033228;28;20048;-72
2022/12/01 08:46:04;;;;;;;63.40;29.65;;;5.80;99.90;;;;;;5019636;28;20409;-72
2022/12/01 08:48:29;;;;;;;64.95;32.38;;;5.80;99.90;;;;;;5053302;28;20037;-72
2022/12/01 08:51:06;;;;;;;47.45;25.33;;;5.90;99.90;;;;;;5055413;28;20032;-82
2022/12/01 08:53:33;;;;;;;47.80;22.63;;;6.00;99.90;;;;;;5032585;28;20056;-83
2022/12/01 08:56:01;;;;;;;56.00;28.20;;;6.10;99.90;;;;;;5015938;28;20041;-83
2022/12/01 08:58:27;;;;;;;53.53;28.27;;;6.20;99.90;;;;;;5032264;28;20084;-84
2022/12/01 09:00:52;;;;;;;53.25;26.55;;;6.30;99.90;;;;;;5022765;28;20468;-84
2022/12/01 09:03:18;;;;;;;58.67;29.42;;;6.40;99.90;;;;;;5027213;28;20167;-83
2022/12/01 09:05:43;;;;;;;71.28;31.98;;;6.40;99.90;;;;;;5052006;28;20047;-71
2022/12/01 09:10:53;;;;;;;60.17;30.67;;;6.60;99.90;;;;;;5071827;28;20094;-71
2022/12/01 09:13:18;;;;;;;61.42;31.33;;;6.70;99.90;;;;;;5051074;28;20518;-72
2022/12/01 09:15:52;;;;;;;64.20;32.75;;;6.70;99.90;;;;;;5051509;28;20155;-72
2022/12/01 09:18:18;;;;;;;59.15;29.90;;;6.70;99.90;;;;;;5033068;28;20041;-71
2022/12/01 09:20:43;;;;;;;63.00;32.28;;;6.70;99.90;;;;;;5048520;28;20060;-71
2022/12/01 09:23:09;;;;;;;63.40;30.60;;;6.70;99.90;;;;;;5015162;28;20120;-72
2022/12/01 09:25:34;;;;;;;60.33;29.45;;;6.70;99.90;;;;;;5031066;28;20040;-71
2022/12/01 09:28:00;;;;;;;63.17;31.52;;;6.70;99.90;;;;;;5051976;28;20056;-72
2022/12/01 09:30:26;;;;;;;60.47;30.45;;;6.80;99.90;;;;;;5053799;28;20041;-71
2022/12/01 09:32:51;;;;;;;57.55;30.88;;;6.80;99.90;;;;;;5053911;28;20042;-71
2022/12/01 09:35:17;;;;;;;60.05;30.40;;;6.80;99.90;;;;;;5043073;28;20033;-72
2022/12/01 09:37:42;;;;;;;61.40;32.40;;;6.90;99.90;;;;;;5062438;28;20037;-71
2022/12/01 09:40:12;;;;;;;63.25;31.52;;;6.90;99.90;;;;;;5051245;28;20485;-71
2022/12/01 09:42:39;;;;;;;59.72;30.15;;;6.90;99.90;;;;;;5048320;28;20448;-72
2022/12/01 09:45:10;;;;;;;61.65;29.83;;;6.90;99.90;;;;;;5043295;28;20409;-71
2022/12/01 09:47:36;;;;;;;60.20;29.55;;;6.90;99.90;;;;;;5026451;28;20458;-72
2022/12/01 09:50:10;;;;;;;55.65;30.30;;;7.00;99.90;;;;;;5034914;28;20068;-71
2022/12/01 09:52:43;;;;;;;59.55;29.45;;;7.00;99.90;;;;;;5035303;28;20043;-72
2022/12/01 09:55:15;;;;;;;55.67;29.23;;;7.00;99.90;;;;;;5051837;28;20029;-72
2022/12/01 09:57:41;;;;;;;57.25;28.58;;;7.00;99.90;;;;;;5042879;28;20046;-71
2022/12/01 10:00:17;;;;;;;56.47;28.42;;;7.00;99.90;;;;;;5049531;28;20497;-72
2022/12/01 10:03:12;;;;;;;58.60;29.95;;;7.10;99.90;;;;;;5037273;28;20045;-71
2022/12/01 10:05:47;;;;;;;59.53;30.05;;;7.10;99.90;;;;;;5025038;28;20040;-71
2022/12/01 10:08:25;;;;;;;57.50;30.58;;;7.00;99.90;;;;;;5051880;28;20037;-72
2022/12/01 10:10:54;;;;;;;57.13;28.65;;;7.10;99.90;;;;;;5033308;28;20537;-71
2022/12/01 10:13:24;;;;;;;59.55;29.75;;;7.10;99.90;;;;;;5026749;28;20086;-71
2022/12/01 10:15:53;;;;;;;57.50;28.00;;;7.20;99.90;;;;;;5030652;28;20059;-80
2022/12/01 10:18:24;;;;;;;55.30;29.02;;;7.20;99.90;;;;;;5055523;28;20040;-78
2022/12/01 10:21:00;;;;;;;64.27;32.80;;;7.20;99.90;;;;;;5070738;28;20072;-72
2022/12/01 10:23:45;;;;;;;61.10;31.83;;;7.30;99.90;;;;;;5024866;28;20041;-72
2022/12/01 10:26:27;;;;;;;59.78;30.02;;;7.20;99.90;;;;;;5055891;28;20056;-72
2022/12/01 10:29:11;;;;;;;56.60;29.83;;;7.20;99.90;;;;;;5044199;28;20116;-72
2022/12/01 10:31:58;;;;;;;54.25;28.77;;;7.10;99.90;;;;;;5041082;28;20506;-72
2022/12/01 10:34:28;;;;;;;51.92;28.23;;;7.10;99.90;;;;;;5044406;28;20029;-72
2022/12/01 10:36:55;;;;;;;56.00;28.77;;;7.10;99.90;;;;;;5065615;28;20401;-72
2022/12/01 10:39:39;;;;;;;58.08;29.60;;;7.10;99.90;;;;;;5073075;28;20047;-72
2022/12/01 10:42:13;;;;;;;61.33;30.02;;;7.10;99.90;;;;;;5053033;28;20033;-72
2022/12/01 10:44:39;;;;;;;51.97;27.52;;;7.10;99.90;;;;;;5063506;28;20505;-72
2022/12/01 10:47:16;;;;;;;52.58;27.60;;;7.10;99.90;;;;;;5055748;28;20040;-72
2022/12/01 10:49:42;;;;;;;50.72;28.02;;;7.10;99.90;;;;;;5041661;28;20097;-72
2022/12/01 10:52:30;;;;;;;51.17;27.55;;;7.20;99.90;;;;;;5052772;28;20385;-72
2022/12/01 10:54:56;;;;;;;49.25;26.92;;;7.20;99.90;;;;;;5050666;28;20033;-72
2022/12/01 10:57:22;;;;;;;50.92;28.90;;;7.30;99.90;;;;;;5048490;28;20078;-72
2022/12/01 11:00:07;;;;;;;52.38;28.08;;;7.30;99.90;;;;;;5055145;28;20131;-72
2022/12/01 11:02:34;;;;;;;52.08;26.58;;;7.30;99.90;;;;;;5050955;28;20048;-72
2022/12/01 11:05:01;;;;;;;51.75;28.13;;;7.30;99.90;;;;;;5032159;28;20045;-72
2022/12/01 11:07:28;;;;;;;55.00;27.83;;;7.20;99.90;;;;;;5034032;28;20041;-72
2022/12/01 11:10:04;;;;;;;57.88;27.88;;;7.20;99.90;;;;;;5035772;28;20051;-72
2022/12/01 11:12:31;;;;;;;48.50;26.60;;;7.20;99.90;;;;;;5033586;28;20032;-72
2022/12/01 11:14:57;;;;;;;56.10;27.40;;;7.30;99.90;;;;;;5042696;28;20423;-72
2022/12/01 11:17:37;;;;;;;48.72;27.35;;;7.30;99.90;;;;;;5040330;28;20033;-72
2022/12/01 11:20:26;;;;;;;49.15;26.48;;;7.30;99.90;;;;;;5047212;28;20041;-72
2022/12/01 11:23:13;;;;;;;53.80;26.90;;;7.20;99.90;;;;;;5064924;28;20063;-72
2022/12/01 11:25:38;;;;;;;54.20;28.25;;;7.20;99.90;;;;;;5040952;28;20042;-72
2022/12/01 11:28:04;;;;;;;53.00;27.42;;;7.20;99.90;;;;;;5053392;28;20052;-72
2022/12/01 11:30:32;;;;;;;53.65;27.05;;;7.20;99.90;;;;;;5035419;28;20227;-72
2022/12/01 11:33:00;;;;;;;53.63;27.63;;;7.20;99.90;;;;;;5037557;28;20413;-72
2022/12/01 11:35:36;;;;;;;51.50;28.20;;;7.20;99.90;;;;;;5041873;28;20059;-72
2022/12/01 11:38:04;;;;;;;47.20;25.27;;;7.10;99.90;;;;;;5057046;28;20370;-72
2022/12/01 11:40:45;;;;;;;50.10;25.75;;;7.10;99.90;;;;;;5045446;28;20086;-72
2022/12/01 11:43:27;;;;;;;42.25;23.33;;;7.10;99.90;;;;;;5073020;28;20143;-72
2022/12/01 11:45:56;;;;;;;45.38;25.10;;;7.10;99.90;;;;;;5042778;28;20127;-72
2022/12/01 11:48:30;;;;;;;46.83;24.50;;;7.20;99.90;;;;;;5036935;28;20048;-72
2022/12/01 11:51:27;;;;;;;46.30;24.08;;;7.20;99.90;;;;;;5041736;28;20502;-72
2022/12/01 11:54:20;;;;;;;44.83;24.20;;;7.20;99.90;;;;;;5061648;28;20044;-72
2022/12/01 11:56:47;;;;;;;41.70;23.20;;;7.30;99.90;;;;;;5066057;28;20385;-72
2022/12/01 11:59:23;;;;;;;48.05;25.02;;;7.20;99.90;;;;;;5036081;28;20041;-72
2022/12/01 12:02:22;;;;;;;50.00;25.10;;;7.30;99.90;;;;;;5041469;28;20124;-72
2022/12/01 12:05:19;;;;;;;47.65;25.85;;;7.30;99.90;;;;;;5060973;28;20458;-72
2022/12/01 12:08:22;;;;;;;44.67;23.25;;;7.30;99.90;;;;;;5051635;28;20041;-72
2022/12/01 12:11:06;;;;;;;49.65;25.30;;;7.30;99.90;;;;;;5031054;28;20052;-72
2022/12/01 12:13:53;;;;;;;45.50;24.42;;;7.30;99.90;;;;;;5054442;28;20086;-72
2022/12/01 12:16:44;;;;;;;46.42;23.58;;;7.30;99.90;;;;;;5071162;28;20105;-72
2022/12/01 12:19:21;;;;;;;48.30;26.08;;;7.30;99.90;;;;;;5048836;28;20048;-72
2022/12/01 12:22:09;;;;;;;47.05;23.92;;;7.30;99.90;;;;;;5031281;28;20408;-72
2022/12/01 12:25:03;;;;;;;45.17;24.13;;;7.40;99.90;;;;;;5035511;28;20045;-72
2022/12/01 12:27:50;;;;;;;46.00;24.75;;;7.30;99.90;;;;;;5032148;28;20083;-72
2022/12/01 12:30:23;;;;;;;45.45;25.00;;;7.30;99.90;;;;;;5023463;28;20044;-72
2022/12/01 12:32:51;;;;;;;48.38;26.73;;;7.20;99.90;;;;;;5026332;28;20132;-72
2022/12/01 12:35:19;;;;;;;41.85;23.98;;;7.30;99.90;;;;;;5040526;28;20036;-72
2022/12/01 12:38:03;;;;;;;46.95;26.40;;;7.40;99.90;;;;;;5064910;28;20086;-72
2022/12/01 12:40:40;;;;;;;46.47;25.50;;;7.40;99.90;;;;;;5069877;28;20036;-72
2022/12/01 12:43:17;;;;;;;43.35;25.35;;;7.30;99.90;;;;;;5015129;28;20049;-72
2022/12/01 12:46:00;;;;;;;49.17;25.35;;;7.30;99.90;;;;;;5050916;28;20036;-72
2022/12/01 12:48:54;;;;;;;42.30;22.50;;;7.30;99.90;;;;;;5056482;28;20082;-72
2022/12/01 12:51:26;;;;;;;43.22;23.63;;;7.30;99.90;;;;;;5046980;28;20424;-72
2022/12/01 12:53:53;;;;;;;;;;;7.30;99.90;;;;;;5033944;28;20044;-72
2022/12/01 12:56:23;;;;;;;45.97;23.48;;;7.30;99.90;;;;;;5039548;28;20266;-72
2022/12/01 12:59:00;;;;;;;41.13;23.58;;;7.20;99.90;;;;;;5049905;28;20041;-72
2022/12/01 13:01:31;;;;;;;41.33;24.25;;;7.20;99.90;;;;;;5032939;28;20064;-72